createdAt,value
2023-03-22T00:00:17.774Z,9.72
2023-03-22T00:03:06.755Z,9.69
2023-03-22T00:05:35.352Z,9.65
2023-03-22T00:08:07.367Z,9.63
2023-03-22T00:10:38.553Z,9.60
2023-03-22T00:13:08.991Z,9.56
2023-03-22T00:15:37.783Z,9.52
2023-03-22T00:18:06.265Z,9.49
2023-03-22T00:20:38.755Z,9.47
2023-03-22T00:23:09.379Z,9.44
2023-03-22T00:25:38.160Z,9.42
2023-03-22T00:28:06.852Z,9.41
2023-03-22T00:30:35.499Z,9.39
2023-03-22T00:33:04.427Z,9.37
2023-03-22T00:35:33.818Z,9.36
2023-03-22T00:38:06.719Z,9.35
2023-03-22T00:40:35.826Z,9.34
2023-03-22T00:43:04.294Z,9.31
2023-03-22T00:45:32.729Z,9.27
2023-03-22T00:48:01.229Z,9.22
2023-03-22T00:50:30.150Z,9.16
2023-03-22T00:52:58.756Z,9.12
2023-03-22T00:55:27.221Z,9.07
2023-03-22T00:57:55.904Z,9.03
2023-03-22T01:00:25.415Z,9.00
2023-03-22T01:02:54.506Z,8.97
2023-03-22T01:05:23.103Z,8.95
2023-03-22T01:07:52.085Z,8.92
2023-03-22T01:10:21.164Z,8.89
2023-03-22T01:12:53.043Z,8.84
2023-03-22T01:15:23.775Z,8.79
2023-03-22T01:17:52.877Z,8.76
2023-03-22T01:20:21.556Z,8.75
2023-03-22T01:22:50.316Z,8.70
2023-03-22T01:25:19.432Z,8.68
2023-03-22T01:27:47.929Z,8.65
2023-03-22T01:30:17.124Z,8.62
2023-03-22T01:32:45.713Z,8.58
2023-03-22T01:35:14.806Z,8.54
2023-03-22T01:37:43.899Z,8.50
2023-03-22T01:40:14.798Z,8.48
2023-03-22T01:42:43.578Z,8.45
2023-03-22T01:45:19.283Z,8.42
2023-03-22T01:47:55.674Z,8.41
2023-03-22T01:50:26.558Z,8.40
2023-03-22T01:52:56.929Z,8.39
2023-03-22T01:55:30.420Z,8.39
2023-03-22T01:58:09.655Z,8.41
2023-03-22T02:00:52.310Z,8.42
2023-03-22T02:03:38.360Z,8.42
2023-03-22T02:06:08.373Z,8.40
2023-03-22T02:08:36.967Z,8.38
2023-03-22T02:11:16.511Z,8.39
2023-03-22T02:14:12.737Z,8.40
2023-03-22T02:17:24.951Z,8.42
2023-03-22T02:20:21.138Z,8.46
2023-03-22T02:23:00.514Z,8.48
2023-03-22T02:26:00.842Z,8.48
2023-03-22T02:28:52.558Z,8.48
2023-03-22T02:31:40.917Z,8.48
2023-03-22T02:34:24.963Z,8.48
2023-03-22T02:36:56.414Z,8.46
2023-03-22T02:39:30.938Z,8.43
2023-03-22T02:42:24.440Z,8.40
2023-03-22T02:45:02.131Z,8.37
2023-03-22T02:47:38.795Z,8.36
2023-03-22T02:50:22.728Z,8.36
2023-03-22T02:52:57.655Z,8.34
2023-03-22T02:55:38.118Z,8.30
2023-03-22T02:58:18.787Z,8.26
2023-03-22T03:00:51.449Z,8.24
2023-03-22T03:03:25.652Z,8.25
2023-03-22T03:05:58.266Z,8.24
2023-03-22T03:08:28.797Z,8.23
2023-03-22T03:10:57.989Z,8.22
2023-03-22T03:13:26.680Z,8.22
2023-03-22T03:15:59.755Z,8.25
2023-03-22T03:18:59.898Z,8.26
2023-03-22T03:22:27.683Z,8.28
2023-03-22T03:25:04.960Z,8.28
2023-03-22T03:27:40.880Z,8.27
2023-03-22T03:30:15.844Z,8.28
2023-03-22T03:32:53.957Z,8.26
2023-03-22T03:35:27.825Z,8.26
2023-03-22T03:38:08.940Z,8.25
2023-03-22T03:40:52.496Z,8.25
2023-03-22T03:43:25.658Z,8.24
2023-03-22T03:45:55.745Z,8.23
2023-03-22T03:48:28.948Z,8.23
2023-03-22T03:50:59.714Z,8.22
2023-03-22T03:53:29.473Z,8.19
2023-03-22T03:55:57.978Z,8.17
2023-03-22T03:58:27.394Z,8.14
2023-03-22T04:00:56.002Z,8.12
2023-03-22T04:03:55.727Z,8.06
2023-03-22T04:06:36.389Z,8.01
2023-03-22T04:09:10.994Z,7.98
2023-03-22T04:11:42.985Z,7.95
2023-03-22T04:14:12.554Z,7.92
2023-03-22T04:16:41.362Z,7.86
2023-03-22T04:19:11.399Z,7.82
2023-03-22T04:21:40.998Z,7.80
2023-03-22T04:24:10.714Z,7.78
2023-03-22T04:26:41.648Z,7.77
2023-03-22T04:29:26.406Z,7.76
2023-03-22T04:31:58.888Z,7.75
2023-03-22T04:34:32.179Z,7.76
2023-03-22T04:37:04.142Z,7.78
2023-03-22T04:39:34.979Z,7.79
2023-03-22T04:42:25.680Z,7.80
2023-03-22T04:45:14.645Z,7.80
2023-03-22T04:47:45.601Z,7.80
2023-03-22T04:50:14.165Z,7.80
2023-03-22T04:52:50.227Z,7.80
2023-03-22T04:55:19.020Z,7.81
2023-03-22T04:57:47.701Z,7.80
2023-03-22T05:00:17.417Z,7.79
2023-03-22T05:02:45.926Z,7.80
2023-03-22T05:05:30.453Z,7.80
2023-03-22T05:07:59.759Z,7.80
2023-03-22T05:10:28.850Z,7.80
2023-03-22T05:12:58.972Z,7.82
2023-03-22T05:15:34.009Z,7.86
2023-03-22T05:18:04.200Z,7.89
2023-03-22T05:20:33.019Z,7.91
2023-03-22T05:23:19.427Z,7.92
2023-03-22T05:25:50.154Z,7.94
2023-03-22T05:28:21.781Z,7.97
2023-03-22T05:31:03.408Z,8.02
2023-03-22T05:33:44.479Z,8.05
2023-03-22T05:36:14.401Z,8.08
2023-03-22T05:38:58.010Z,8.11
2023-03-22T05:41:26.618Z,8.15
2023-03-22T05:43:55.613Z,8.20
2023-03-22T05:46:24.918Z,8.24
2023-03-22T05:49:13.577Z,8.27
2023-03-22T05:51:43.997Z,8.30
2023-03-22T05:54:13.174Z,8.32
2023-03-22T05:56:46.391Z,8.33
2023-03-22T05:59:14.771Z,8.33
2023-03-22T06:01:43.475Z,8.36
2023-03-22T06:04:21.361Z,8.41
2023-03-22T06:07:13.412Z,8.45
2023-03-22T06:10:13.071Z,8.49
2023-03-22T06:12:41.912Z,8.53
2023-03-22T06:15:14.932Z,8.59
2023-03-22T06:18:02.528Z,8.64
2023-03-22T06:20:35.782Z,8.69
2023-03-22T06:23:09.724Z,8.71
2023-03-22T06:25:38.926Z,8.74
2023-03-22T06:28:08.762Z,8.75
2023-03-22T06:30:38.868Z,8.79
2023-03-22T06:33:30.240Z,8.82
2023-03-22T06:36:07.264Z,8.85
2023-03-22T06:38:42.904Z,8.89
2023-03-22T06:41:12.098Z,8.95
2023-03-22T06:43:40.442Z,8.98
2023-03-22T06:46:17.810Z,9.01
2023-03-22T06:48:54.641Z,9.05
2023-03-22T06:51:23.224Z,9.08
2023-03-22T06:53:51.866Z,9.12
2023-03-22T06:56:21.010Z,9.14
2023-03-22T06:58:53.053Z,9.18
2023-03-22T07:01:22.278Z,9.20
2023-03-22T07:03:51.363Z,9.23
2023-03-22T07:06:23.644Z,9.25
2023-03-22T07:08:52.674Z,9.27
2023-03-22T07:11:26.928Z,9.28
2023-03-22T07:14:00.457Z,9.30
2023-03-22T07:16:37.639Z,9.32
2023-03-22T07:19:07.971Z,9.35
2023-03-22T07:21:38.088Z,9.37
2023-03-22T07:24:09.821Z,9.41
2023-03-22T07:26:40.554Z,9.42
2023-03-22T07:29:09.757Z,9.44
2023-03-22T07:31:40.210Z,9.46
2023-03-22T07:34:12.786Z,9.48
2023-03-22T07:36:57.441Z,9.49
2023-03-22T07:39:26.551Z,9.51
2023-03-22T07:41:56.562Z,9.54
2023-03-22T07:44:26.490Z,9.60
2023-03-22T07:47:11.140Z,9.62
2023-03-22T07:49:50.834Z,9.66
2023-03-22T07:52:22.765Z,9.70
2023-03-22T07:54:51.637Z,9.75
2023-03-22T07:57:20.128Z,9.82
2023-03-22T07:59:54.718Z,9.91
2023-03-22T08:02:24.947Z,10.01
2023-03-22T08:04:56.619Z,10.12
2023-03-22T08:07:33.404Z,10.23
2023-03-22T08:10:02.090Z,10.30
2023-03-22T08:12:31.599Z,10.34
2023-03-22T08:15:14.842Z,10.40
2023-03-22T08:17:43.418Z,10.44
2023-03-22T08:20:18.957Z,10.52
2023-03-22T08:22:52.555Z,10.64
2023-03-22T08:25:22.002Z,10.76
2023-03-22T08:27:50.853Z,10.87
2023-03-22T08:30:19.272Z,10.96
2023-03-22T08:32:47.816Z,11.02
2023-03-22T08:35:16.609Z,11.09
2023-03-22T08:37:45.093Z,11.12
2023-03-22T08:40:14.753Z,11.17
2023-03-22T08:42:51.234Z,11.20
2023-03-22T08:45:19.873Z,11.21
2023-03-22T08:47:58.476Z,11.20
2023-03-22T08:50:27.875Z,11.22
2023-03-22T08:53:11.318Z,11.23
2023-03-22T08:55:45.277Z,11.23
2023-03-22T08:58:31.223Z,11.25
2023-03-22T09:01:21.428Z,11.28
2023-03-22T09:03:55.019Z,11.32
2023-03-22T09:06:26.495Z,11.35
2023-03-22T09:08:56.472Z,11.39
2023-03-22T09:11:25.555Z,11.44
2023-03-22T09:13:54.256Z,11.47
2023-03-22T09:16:22.881Z,11.51
2023-03-22T09:18:52.139Z,11.56
2023-03-22T09:21:22.575Z,11.64
2023-03-22T09:23:58.116Z,11.72
2023-03-22T09:26:34.697Z,11.81
2023-03-22T09:29:03.577Z,11.90
2023-03-22T09:31:32.186Z,11.97
2023-03-22T09:34:19.255Z,12.06
2023-03-22T09:36:47.777Z,12.15
2023-03-22T09:39:18.604Z,12.25
2023-03-22T09:41:53.843Z,12.31
2023-03-22T09:44:26.622Z,12.42
2023-03-22T09:46:57.665Z,12.54
2023-03-22T09:49:52.714Z,12.63
2023-03-22T09:52:23.058Z,12.67
2023-03-22T09:54:53.058Z,12.73
2023-03-22T09:57:37.640Z,12.78
2023-03-22T10:00:40.755Z,12.83
2023-03-22T10:03:25.533Z,12.91
2023-03-22T10:06:06.814Z,12.97
2023-03-22T10:08:53.620Z,13.00
2023-03-22T10:11:24.976Z,13.03
2023-03-22T10:14:10.978Z,13.09
2023-03-22T10:16:40.787Z,13.16
2023-03-22T10:19:20.401Z,13.17
2023-03-22T10:21:52.034Z,13.19
2023-03-22T10:24:36.194Z,13.19
2023-03-22T10:27:16.080Z,13.16
2023-03-22T10:29:51.598Z,13.19
2023-03-22T10:32:28.403Z,13.25
2023-03-22T10:34:57.090Z,13.34
2023-03-22T10:37:33.503Z,13.44
2023-03-22T10:40:08.347Z,13.56
2023-03-22T10:42:39.645Z,13.66
2023-03-22T10:45:13.945Z,13.71
2023-03-22T10:47:42.739Z,13.70
2023-03-22T10:50:19.929Z,13.71
2023-03-22T10:52:56.810Z,13.71
2023-03-22T10:55:26.128Z,13.71
2023-03-22T10:58:19.478Z,13.70
2023-03-22T11:00:52.190Z,13.70
2023-03-22T11:03:39.699Z,13.70
2023-03-22T11:06:13.228Z,13.68
2023-03-22T11:08:50.388Z,13.63
2023-03-22T11:11:26.419Z,13.56
2023-03-22T11:14:17.013Z,13.43
2023-03-22T11:16:56.587Z,13.33
2023-03-22T11:19:33.666Z,13.27
2023-03-22T11:22:08.054Z,13.25
2023-03-22T11:24:36.671Z,13.19
2023-03-22T11:27:34.553Z,13.10
2023-03-22T11:30:29.513Z,13.04
2023-03-22T11:33:07.369Z,12.98
2023-03-22T11:35:38.582Z,12.95
2023-03-22T11:38:09.392Z,12.94
2023-03-22T11:40:48.975Z,12.89
2023-03-22T11:43:21.824Z,12.82
2023-03-22T11:45:55.913Z,12.76
2023-03-22T11:48:28.085Z,12.70
2023-03-22T11:51:10.652Z,12.62
2023-03-22T11:53:42.691Z,12.53
2023-03-22T11:56:16.212Z,12.47
2023-03-22T11:58:47.769Z,12.44
2023-03-22T12:01:48.723Z,12.42
2023-03-22T12:04:23.074Z,12.37
2023-03-22T12:06:57.252Z,12.29
2023-03-22T12:09:49.596Z,12.25
2023-03-22T12:12:25.544Z,12.19
2023-03-22T12:15:13.723Z,12.16
2023-03-22T12:17:49.427Z,12.11
2023-03-22T12:20:38.728Z,12.07
2023-03-22T12:23:19.760Z,12.03
2023-03-22T12:25:57.904Z,11.99
2023-03-22T12:28:52.803Z,11.94
2023-03-22T12:31:29.189Z,11.90
2023-03-22T12:34:03.467Z,11.87
2023-03-22T12:36:54.718Z,11.81
2023-03-22T12:39:30.250Z,11.72
2023-03-22T12:42:06.925Z,11.68
2023-03-22T12:44:43.327Z,11.64
2023-03-22T12:47:52.221Z,11.61
2023-03-22T12:50:29.206Z,11.58
2023-03-22T12:52:58.913Z,11.55
2023-03-22T12:55:34.492Z,11.55
2023-03-22T12:58:06.914Z,11.57
2023-03-22T13:00:54.410Z,11.57
2023-03-22T13:03:30.633Z,11.59
2023-03-22T13:06:03.615Z,11.61
2023-03-22T13:09:18.077Z,11.63
2023-03-22T13:11:49.817Z,11.68
2023-03-22T13:14:53.542Z,11.71
2023-03-22T13:17:25.412Z,11.72
2023-03-22T13:20:07.204Z,11.70
2023-03-22T13:22:38.962Z,11.67
2023-03-22T13:25:11.076Z,11.65
2023-03-22T13:27:50.463Z,11.60
2023-03-22T13:30:22.134Z,11.57
2023-03-22T13:33:12.365Z,11.56
2023-03-22T13:35:44.275Z,11.53
2023-03-22T13:38:30.708Z,11.50
2023-03-22T13:41:04.673Z,11.48
2023-03-22T13:43:39.106Z,11.50
2023-03-22T13:46:12.437Z,11.55
2023-03-22T13:48:54.659Z,11.59
2023-03-22T13:51:23.427Z,11.67
2023-03-22T13:54:11.744Z,11.78
2023-03-22T13:57:01.610Z,11.88
2023-03-22T14:00:03.125Z,11.99
2023-03-22T14:02:44.143Z,12.10
2023-03-22T14:05:21.654Z,12.18
2023-03-22T14:07:53.072Z,12.27
2023-03-22T14:10:39.474Z,12.32
2023-03-22T14:13:26.838Z,12.37
2023-03-22T14:16:02.640Z,12.42
2023-03-22T14:18:33.189Z,12.43
2023-03-22T14:21:18.443Z,12.42
